createdAt,value
2023-05-05T00:00:10.589Z,53.59
2023-05-05T00:00:21.584Z,53.62
2023-05-05T00:00:32.621Z,53.72
2023-05-05T00:00:44.584Z,54.03
2023-05-05T00:00:55.583Z,54.03
2023-05-05T00:01:06.586Z,54.03
2023-05-05T00:01:17.579Z,53.62
2023-05-05T00:01:28.592Z,53.31
2023-05-05T00:01:39.591Z,53.41
2023-05-05T00:01:51.583Z,53.52
2023-05-05T00:02:02.650Z,53.72
2023-05-05T00:02:13.591Z,53.92
2023-05-05T00:02:24.599Z,54.33
2023-05-05T00:02:35.763Z,54.13
2023-05-05T00:02:47.700Z,53.62
2023-05-05T00:02:59.773Z,53.31
2023-05-05T00:03:11.696Z,53.11
2023-05-05T00:03:22.612Z,53.00
2023-05-05T00:03:33.644Z,53.11
2023-05-05T00:03:45.708Z,53.21
2023-05-05T00:03:56.571Z,53.21
2023-05-05T00:04:07.642Z,53.31
2023-05-05T00:04:18.576Z,53.31
2023-05-05T00:04:29.589Z,53.41
2023-05-05T00:04:41.589Z,53.31
2023-05-05T00:04:52.583Z,53.31
2023-05-05T00:05:03.584Z,53.31
2023-05-05T00:05:14.584Z,53.31
2023-05-05T00:05:25.592Z,53.31
2023-05-05T00:05:36.591Z,53.41
2023-05-05T00:05:47.577Z,53.41
2023-05-05T00:05:59.581Z,53.41
2023-05-05T00:06:10.591Z,53.31
2023-05-05T00:06:21.570Z,53.31
2023-05-05T00:06:32.588Z,53.41
2023-05-05T00:06:44.657Z,53.62
2023-05-05T00:06:56.614Z,53.72
2023-05-05T00:07:08.593Z,53.62
2023-05-05T00:07:19.612Z,53.92
2023-05-05T00:07:31.574Z,54.03
2023-05-05T00:07:42.568Z,54.13
2023-05-05T00:07:53.565Z,54.03
2023-05-05T00:08:04.559Z,53.92
2023-05-05T00:08:15.553Z,53.92
2023-05-05T00:08:26.559Z,53.82
2023-05-05T00:08:37.546Z,53.82
2023-05-05T00:08:48.549Z,53.82
2023-05-05T00:08:59.642Z,53.75
2023-05-05T00:09:11.620Z,54.05
2023-05-05T00:09:23.587Z,54.23
2023-05-05T00:09:34.601Z,54.36
2023-05-05T00:09:45.597Z,54.25
2023-05-05T00:09:56.600Z,54.05
2023-05-05T00:10:07.957Z,54.05
2023-05-05T00:10:19.595Z,53.95
2023-05-05T00:10:31.591Z,54.57
2023-05-05T00:10:42.596Z,54.16
2023-05-05T00:10:53.619Z,53.85
2023-05-05T00:11:05.596Z,53.75
2023-05-05T00:11:16.596Z,53.95
2023-05-05T00:11:27.591Z,55.08
2023-05-05T00:11:38.598Z,55.69
2023-05-05T00:11:50.596Z,55.58
2023-05-05T00:12:01.605Z,55.49
2023-05-05T00:12:12.621Z,54.97
2023-05-05T00:12:24.593Z,54.46
2023-05-05T00:12:35.620Z,54.16
2023-05-05T00:12:47.607Z,54.05
2023-05-05T00:12:59.653Z,54.16
2023-05-05T00:13:11.743Z,54.57
2023-05-05T00:13:23.652Z,55.18
2023-05-05T00:13:35.616Z,55.18
2023-05-05T00:13:47.585Z,54.87
2023-05-05T00:13:58.580Z,54.77
2023-05-05T00:14:09.574Z,55.08
2023-05-05T00:14:20.597Z,55.41
2023-05-05T00:14:31.600Z,55.51
2023-05-05T00:14:42.601Z,55.51
2023-05-05T00:14:54.613Z,55.51
2023-05-05T00:15:06.595Z,55.62
2023-05-05T00:15:17.631Z,56.43
2023-05-05T00:15:29.589Z,56.84
2023-05-05T00:15:40.576Z,56.84
2023-05-05T00:15:51.568Z,56.84
2023-05-05T00:16:02.612Z,56.95
2023-05-05T00:16:13.605Z,57.15
2023-05-05T00:16:25.628Z,57.89
2023-05-05T00:16:37.643Z,58.10
2023-05-05T00:16:48.618Z,58.00
2023-05-05T00:17:00.615Z,57.38
2023-05-05T00:17:11.781Z,56.97
2023-05-05T00:17:22.648Z,56.56
2023-05-05T00:17:34.586Z,56.46
2023-05-05T00:17:45.615Z,56.35
2023-05-05T00:17:57.613Z,56.56
2023-05-05T00:18:09.689Z,56.35
2023-05-05T00:18:20.576Z,56.07
2023-05-05T00:18:31.584Z,56.07
2023-05-05T00:18:42.600Z,56.07
2023-05-05T00:18:53.592Z,55.98
2023-05-05T00:19:04.596Z,56.18
2023-05-05T00:19:15.581Z,57.10
2023-05-05T00:19:26.570Z,57.10
2023-05-05T00:19:37.575Z,56.90
2023-05-05T00:19:49.581Z,57.20
2023-05-05T00:20:00.592Z,57.41
2023-05-05T00:20:11.572Z,57.31
2023-05-05T00:20:22.612Z,57.20
2023-05-05T00:20:33.605Z,57.10
2023-05-05T00:20:45.577Z,56.79
2023-05-05T00:20:56.587Z,56.79
2023-05-05T00:21:07.576Z,56.90
2023-05-05T00:21:18.574Z,56.79
2023-05-05T00:21:29.592Z,56.90
2023-05-05T00:21:40.574Z,57.00
2023-05-05T00:21:51.576Z,57.00
2023-05-05T00:22:02.588Z,57.41
2023-05-05T00:22:13.592Z,57.43
2023-05-05T00:22:24.623Z,57.13
2023-05-05T00:22:36.595Z,56.82
2023-05-05T00:22:47.598Z,56.82
2023-05-05T00:22:58.607Z,56.92
2023-05-05T00:23:09.602Z,57.13
2023-05-05T00:23:20.612Z,57.64
2023-05-05T00:23:32.584Z,57.75
2023-05-05T00:23:43.588Z,58.15
2023-05-05T00:23:54.590Z,58.26
2023-05-05T00:24:05.592Z,57.95
2023-05-05T00:24:16.592Z,57.54
2023-05-05T00:24:27.596Z,57.33
2023-05-05T00:24:38.598Z,57.03
2023-05-05T00:24:49.600Z,56.92
2023-05-05T00:25:00.600Z,56.92
2023-05-05T00:25:11.583Z,56.82
2023-05-05T00:25:22.603Z,56.71
2023-05-05T00:25:34.574Z,57.43
2023-05-05T00:25:45.565Z,58.26
2023-05-05T00:25:56.556Z,57.95
2023-05-05T00:26:07.586Z,57.84
2023-05-05T00:26:18.582Z,57.84
2023-05-05T00:26:29.586Z,57.84
2023-05-05T00:26:40.575Z,58.05
2023-05-05T00:26:51.572Z,58.46
2023-05-05T00:27:02.586Z,58.77
2023-05-05T00:27:13.574Z,58.87
2023-05-05T00:27:24.562Z,58.77
2023-05-05T00:27:35.599Z,58.56
2023-05-05T00:27:47.603Z,58.36
2023-05-05T00:27:58.597Z,58.36
2023-05-05T00:28:09.588Z,58.36
2023-05-05T00:28:20.594Z,58.46
2023-05-05T00:28:31.609Z,58.36
2023-05-05T00:28:43.598Z,58.36
2023-05-05T00:28:54.590Z,58.67
2023-05-05T00:29:05.573Z,58.46
2023-05-05T00:29:16.583Z,58.15
2023-05-05T00:29:27.583Z,57.95
2023-05-05T00:29:38.589Z,58.26
2023-05-05T00:29:49.585Z,58.46
2023-05-05T00:30:00.580Z,58.36
2023-05-05T00:30:11.582Z,58.36
2023-05-05T00:30:22.569Z,58.39
2023-05-05T00:30:33.592Z,58.69
2023-05-05T00:30:44.592Z,58.80
2023-05-05T00:30:55.640Z,58.69
2023-05-05T00:31:07.639Z,58.59
2023-05-05T00:31:18.639Z,58.49
2023-05-05T00:31:30.669Z,58.49
2023-05-05T00:31:41.668Z,58.49
2023-05-05T00:31:53.585Z,58.39
2023-05-05T00:32:04.626Z,58.28
2023-05-05T00:32:16.591Z,58.28
2023-05-05T00:32:27.606Z,58.28
2023-05-05T00:32:39.621Z,58.49
2023-05-05T00:32:51.623Z,58.69
2023-05-05T00:33:02.704Z,59.00
2023-05-05T00:33:14.592Z,59.00
2023-05-05T00:33:25.580Z,59.23
2023-05-05T00:33:36.590Z,59.52
2023-05-05T00:33:47.585Z,59.95
2023-05-05T00:33:58.604Z,60.33
2023-05-05T00:34:10.579Z,59.95
2023-05-05T00:34:21.594Z,59.85
2023-05-05T00:34:32.583Z,60.05
2023-05-05T00:34:43.580Z,59.75
2023-05-05T00:34:54.565Z,59.54
2023-05-05T00:35:05.571Z,59.44
2023-05-05T00:35:16.574Z,59.34
2023-05-05T00:35:27.559Z,59.64
2023-05-05T00:35:38.574Z,59.85
2023-05-05T00:35:49.574Z,60.16
2023-05-05T00:36:00.574Z,60.26
2023-05-05T00:36:11.568Z,60.16
2023-05-05T00:36:22.569Z,60.05
2023-05-05T00:36:33.578Z,60.05
2023-05-05T00:36:44.563Z,59.95
2023-05-05T00:36:55.569Z,60.16
2023-05-05T00:37:06.583Z,60.26
2023-05-05T00:37:17.584Z,60.05
2023-05-05T00:37:28.607Z,59.95
2023-05-05T00:37:39.603Z,59.95
2023-05-05T00:37:50.584Z,60.05
2023-05-05T00:38:01.601Z,60.16
2023-05-05T00:38:12.621Z,60.16
2023-05-05T00:38:23.607Z,60.16
2023-05-05T00:38:34.588Z,60.16
2023-05-05T00:38:46.578Z,60.26
2023-05-05T00:38:57.575Z,60.39
2023-05-05T00:39:08.577Z,60.60
2023-05-05T00:39:19.578Z,60.80
2023-05-05T00:39:30.615Z,60.91
2023-05-05T00:39:41.608Z,61.11
2023-05-05T00:39:52.611Z,61.11
2023-05-05T00:40:03.608Z,61.11
2023-05-05T00:40:14.600Z,61.11
2023-05-05T00:40:25.599Z,61.11
2023-05-05T00:40:36.602Z,61.11
2023-05-05T00:40:48.631Z,61.11
2023-05-05T00:41:00.593Z,61.11
2023-05-05T00:41:11.592Z,61.21
2023-05-05T00:41:22.594Z,61.21
2023-05-05T00:41:33.607Z,61.32
2023-05-05T00:41:44.619Z,61.21
2023-05-05T00:41:56.631Z,61.21
2023-05-05T00:42:08.630Z,61.42
2023-05-05T00:42:20.594Z,61.65
2023-05-05T00:42:31.597Z,61.76
2023-05-05T00:42:42.598Z,61.65
2023-05-05T00:42:53.620Z,61.76
2023-05-05T00:43:05.581Z,61.76
2023-05-05T00:43:16.594Z,61.76
2023-05-05T00:43:27.599Z,61.96
2023-05-05T00:43:39.579Z,61.96
2023-05-05T00:43:50.585Z,62.06
2023-05-05T00:44:01.594Z,62.37
2023-05-05T00:44:12.581Z,62.68
2023-05-05T00:44:23.575Z,62.78
2023-05-05T00:44:35.586Z,62.48
2023-05-05T00:44:46.582Z,62.27
2023-05-05T00:44:57.599Z,62.27
2023-05-05T00:45:08.581Z,62.37
2023-05-05T00:45:19.580Z,62.37
2023-05-05T00:45:30.746Z,62.48
2023-05-05T00:45:41.571Z,62.58
2023-05-05T00:45:52.560Z,62.68
2023-05-05T00:46:03.711Z,62.58
2023-05-05T00:46:14.653Z,62.27
2023-05-05T00:46:26.757Z,62.06
2023-05-05T00:46:37.632Z,62.37
2023-05-05T00:46:49.637Z,62.48
2023-05-05T00:47:01.604Z,62.48
2023-05-05T00:47:13.601Z,62.68
2023-05-05T00:47:24.622Z,62.58
2023-05-05T00:47:36.661Z,62.37
2023-05-05T00:47:48.650Z,62.37
2023-05-05T00:48:00.831Z,62.40
2023-05-05T00:48:12.574Z,62.30
2023-05-05T00:48:23.580Z,62.40
2023-05-05T00:48:34.581Z,62.51
2023-05-05T00:48:45.594Z,62.60
2023-05-05T00:48:56.611Z,62.60
2023-05-05T00:49:08.608Z,62.60
2023-05-05T00:49:20.642Z,62.81
2023-05-05T00:49:32.623Z,63.12
2023-05-05T00:49:44.600Z,63.12
2023-05-05T00:49:55.594Z,63.12
2023-05-05T00:50:06.925Z,63.22
2023-05-05T00:50:17.611Z,63.43
2023-05-05T00:50:29.595Z,63.53
2023-05-05T00:50:40.609Z,63.53
2023-05-05T00:50:51.600Z,63.64
2023-05-05T00:51:02.602Z,63.76
2023-05-05T00:51:14.587Z,63.97
2023-05-05T00:51:25.587Z,64.07
2023-05-05T00:51:36.607Z,64.07
2023-05-05T00:51:47.603Z,64.07
2023-05-05T00:51:58.601Z,64.07
2023-05-05T00:52:09.614Z,64.18
2023-05-05T00:52:21.610Z,64.18
2023-05-05T00:52:32.620Z,64.18
2023-05-05T00:52:44.595Z,63.97
2023-05-05T00:52:56.238Z,63.97
2023-05-05T00:53:06.632Z,63.97
2023-05-05T00:53:17.602Z,64.28
2023-05-05T00:53:28.603Z,64.39
2023-05-05T00:53:40.580Z,64.28
2023-05-05T00:53:51.576Z,64.18
2023-05-05T00:54:02.574Z,63.97
2023-05-05T00:54:13.621Z,63.97
2023-05-05T00:54:24.613Z,63.97
2023-05-05T00:54:35.620Z,63.97
2023-05-05T00:54:47.588Z,64.18
2023-05-05T00:54:58.585Z,64.31
2023-05-05T00:55:09.586Z,64.28
2023-05-05T00:55:20.583Z,64.39
2023-05-05T00:55:31.576Z,64.69
2023-05-05T00:55:42.584Z,65.00
2023-05-05T00:55:53.583Z,65.00
2023-05-05T00:56:04.595Z,65.11
2023-05-05T00:56:15.573Z,65.00
2023-05-05T00:56:26.591Z,64.90
2023-05-05T00:56:38.589Z,64.90
2023-05-05T00:56:49.596Z,65.03
2023-05-05T00:57:00.586Z,64.93
2023-05-05T00:57:11.589Z,64.72
2023-05-05T00:57:22.601Z,64.62
2023-05-05T00:57:33.601Z,64.83
2023-05-05T00:57:45.615Z,65.13
2023-05-05T00:57:57.609Z,65.03
2023-05-05T00:58:08.603Z,65.13
2023-05-05T00:58:19.617Z,65.13
2023-05-05T00:58:31.592Z,65.03
2023-05-05T00:58:42.577Z,65.13
2023-05-05T00:58:53.576Z,65.13
2023-05-05T00:59:04.574Z,65.23
2023-05-05T00:59:15.556Z,65.13
2023-05-05T00:59:26.552Z,65.13
2023-05-05T00:59:37.624Z,65.13
2023-05-05T00:59:49.626Z,65.03
2023-05-05T01:00:01.639Z,64.93
2023-05-05T01:00:13.627Z,65.03
2023-05-05T01:00:25.591Z,65.13
2023-05-05T01:00:36.578Z,65.03
2023-05-05T01:00:47.569Z,65.13
2023-05-05T01:00:58.591Z,65.13
2023-05-05T01:01:09.609Z,65.03
2023-05-05T01:01:20.584Z,65.13
2023-05-05T01:01:31.637Z,65.00
2023-05-05T01:01:43.731Z,65.03
2023-05-05T01:01:55.621Z,64.93
2023-05-05T01:02:07.587Z,65.03
2023-05-05T01:02:18.582Z,65.23
2023-05-05T01:02:29.700Z,65.23
2023-05-05T01:02:41.651Z,65.13
2023-05-05T01:02:53.714Z,65.03
2023-05-05T01:03:05.704Z,64.83
2023-05-05T01:03:17.669Z,64.83
2023-05-05T01:03:29.655Z,64.93
2023-05-05T01:03:40.741Z,65.13
2023-05-05T01:03:52.777Z,65.23
2023-05-05T01:04:03.698Z,65.13
2023-05-05T01:04:15.635Z,65.13
2023-05-05T01:04:27.593Z,65.03
2023-05-05T01:04:38.594Z,64.93
2023-05-05T01:04:49.588Z,64.93
2023-05-05T01:05:00.604Z,64.93
2023-05-05T01:05:11.621Z,64.93
2023-05-05T01:05:23.591Z,65.23
2023-05-05T01:05:34.599Z,65.65
2023-05-05T01:05:45.599Z,65.75
2023-05-05T01:05:56.586Z,65.65
2023-05-05T01:06:07.595Z,65.65
2023-05-05T01:06:18.583Z,65.65
2023-05-05T01:06:29.580Z,65.65
2023-05-05T01:06:40.568Z,65.65
2023-05-05T01:06:51.547Z,65.65
2023-05-05T01:07:02.645Z,65.86
2023-05-05T01:07:14.620Z,66.06
2023-05-05T01:07:25.611Z,65.95
2023-05-05T01:07:37.622Z,65.89
2023-05-05T01:07:49.595Z,65.78
2023-05-05T01:08:00.606Z,65.68
2023-05-05T01:08:12.597Z,65.78
2023-05-05T01:08:23.586Z,65.89
2023-05-05T01:08:34.584Z,66.09
2023-05-05T01:08:45.595Z,66.19
2023-05-05T01:08:56.595Z,66.30
2023-05-05T01:09:07.643Z,66.71
2023-05-05T01:09:19.599Z,66.81
2023-05-05T01:09:31.579Z,66.71
2023-05-05T01:09:42.562Z,66.61
2023-05-05T01:10:04.206Z,66.40
2023-05-05T01:10:18.929Z,66.40
2023-05-05T01:10:20.177Z,66.30
2023-05-05T01:10:27.821Z,66.30
2023-05-05T01:10:39.629Z,66.40
2023-05-05T01:10:51.596Z,66.30
2023-05-05T01:11:02.566Z,66.19
2023-05-05T01:11:13.561Z,66.19
2023-05-05T01:11:24.568Z,66.30
2023-05-05T01:11:35.566Z,66.40
2023-05-05T01:11:46.597Z,66.61
2023-05-05T01:11:57.602Z,66.71
2023-05-05T01:12:08.595Z,66.84
2023-05-05T01:12:19.571Z,66.94
2023-05-05T01:12:30.577Z,66.94
2023-05-05T01:12:41.636Z,67.15
2023-05-05T01:12:53.651Z,67.36
2023-05-05T01:13:04.691Z,67.46
2023-05-05T01:13:16.599Z,67.57
2023-05-05T01:13:27.605Z,67.57
2023-05-05T01:13:38.580Z,67.57
2023-05-05T01:13:49.585Z,67.57
2023-05-05T01:14:00.573Z,67.46
2023-05-05T01:14:11.592Z,67.46
2023-05-05T01:14:22.595Z,67.66
2023-05-05T01:14:33.593Z,67.87
2023-05-05T01:14:44.581Z,67.87
2023-05-05T01:14:55.584Z,67.87
2023-05-05T01:15:07.579Z,67.77
2023-05-05T01:15:18.570Z,67.66
2023-05-05T01:15:29.577Z,67.57
2023-05-05T01:15:40.584Z,67.66
2023-05-05T01:15:51.630Z,67.66
2023-05-05T01:16:02.601Z,67.77
2023-05-05T01:16:14.625Z,67.97
2023-05-05T01:16:26.635Z,67.97
2023-05-05T01:16:38.700Z,67.97
2023-05-05T01:16:50.589Z,67.97
2023-05-05T01:17:01.604Z,67.97
2023-05-05T01:17:12.613Z,68.08
2023-05-05T01:17:24.694Z,68.08
2023-05-05T01:17:35.600Z,68.08
2023-05-05T01:17:46.653Z,68.18
2023-05-05T01:17:58.680Z,68.18
2023-05-05T01:18:10.570Z,68.29
2023-05-05T01:18:21.572Z,68.29
2023-05-05T01:18:32.594Z,68.18
2023-05-05T01:18:43.579Z,68.18
2023-05-05T01:18:54.570Z,67.97
2023-05-05T01:19:05.543Z,68.08
2023-05-05T01:19:16.608Z,68.39
2023-05-05T01:19:27.588Z,68.59
2023-05-05T01:19:38.590Z,68.70
2023-05-05T01:19:49.595Z,68.59
2023-05-05T01:20:00.584Z,68.39
2023-05-05T01:20:11.588Z,68.18
2023-05-05T01:20:22.587Z,67.97
2023-05-05T01:20:33.588Z,67.87
2023-05-05T01:20:44.589Z,67.77
2023-05-05T01:20:55.577Z,67.77
2023-05-05T01:21:06.582Z,67.66
2023-05-05T01:21:17.569Z,67.66
2023-05-05T01:21:28.565Z,67.87
2023-05-05T01:21:39.593Z,67.87
2023-05-05T01:21:50.589Z,67.87
2023-05-05T01:22:02.574Z,67.77
2023-05-05T01:22:13.602Z,67.87
2023-05-05T01:22:24.602Z,67.87
2023-05-05T01:22:35.593Z,67.97
2023-05-05T01:22:46.580Z,67.97
2023-05-05T01:22:57.574Z,67.87
2023-05-05T01:23:08.567Z,67.87
2023-05-05T01:23:20.586Z,67.97
2023-05-05T01:23:32.575Z,67.97
2023-05-05T01:23:43.590Z,67.87
2023-05-05T01:23:54.584Z,67.97
2023-05-05T01:24:05.574Z,67.97
2023-05-05T01:24:16.564Z,67.97
2023-05-05T01:24:27.587Z,68.08
2023-05-05T01:24:38.584Z,67.97
2023-05-05T01:24:49.599Z,67.97
2023-05-05T01:25:00.587Z,68.08
2023-05-05T01:25:11.567Z,68.08
2023-05-05T01:25:22.567Z,67.97
2023-05-05T01:25:33.607Z,68.08
2023-05-05T01:25:45.599Z,68.39
2023-05-05T01:25:56.607Z,68.29
2023-05-05T01:26:07.593Z,68.18
2023-05-05T01:26:18.587Z,67.97
2023-05-05T01:26:29.571Z,67.87
2023-05-05T01:26:40.587Z,67.87
2023-05-05T01:26:52.599Z,67.97
2023-05-05T01:27:03.583Z,67.97
2023-05-05T01:27:14.604Z,68.08
2023-05-05T01:27:26.587Z,68.18
2023-05-05T01:27:38.589Z,68.18
2023-05-05T01:27:49.589Z,68.08
2023-05-05T01:28:00.598Z,68.08
2023-05-05T01:28:11.576Z,68.08
2023-05-05T01:28:22.587Z,68.29
2023-05-05T01:28:33.566Z,68.29
2023-05-05T01:28:44.572Z,68.18
2023-05-05T01:28:55.574Z,68.18
2023-05-05T01:29:06.560Z,68.18
2023-05-05T01:29:17.564Z,68.08
2023-05-05T01:29:28.561Z,67.97
2023-05-05T01:29:39.569Z,67.77
2023-05-05T01:29:50.572Z,67.66
2023-05-05T01:30:01.603Z,67.66
2023-05-05T01:30:12.624Z,67.87
2023-05-05T01:30:24.571Z,67.97
2023-05-05T01:30:35.572Z,68.11
2023-05-05T01:30:46.583Z,68.21
2023-05-05T01:30:57.588Z,68.21
2023-05-05T01:31:08.673Z,68.42
2023-05-05T01:31:19.650Z,68.42
2023-05-05T01:31:31.651Z,68.52
2023-05-05T01:31:43.691Z,68.42
2023-05-05T01:31:55.596Z,68.52
2023-05-05T01:32:06.624Z,68.73
2023-05-05T01:32:17.606Z,68.83
2023-05-05T01:32:28.663Z,68.83
2023-05-05T01:32:39.610Z,68.83
2023-05-05T01:32:50.633Z,68.83
2023-05-05T01:33:02.601Z,68.83
2023-05-05T01:33:13.592Z,68.93
2023-05-05T01:33:24.570Z,68.93
2023-05-05T01:33:35.563Z,68.93
2023-05-05T01:33:46.560Z,69.14
2023-05-05T01:33:57.653Z,69.35
2023-05-05T01:34:09.726Z,69.35
2023-05-05T01:34:21.598Z,69.35
2023-05-05T01:34:32.614Z,69.24
2023-05-05T01:34:43.596Z,69.14
2023-05-05T01:34:54.609Z,69.04
2023-05-05T01:35:05.595Z,68.93
2023-05-05T01:35:16.582Z,68.83
2023-05-05T01:35:27.576Z,68.73
2023-05-05T01:35:38.553Z,68.73
2023-05-05T01:35:49.565Z,68.83
2023-05-05T01:36:00.572Z,68.93
2023-05-05T01:36:11.568Z,69.04
2023-05-05T01:36:22.559Z,69.04
2023-05-05T01:36:33.580Z,69.24
2023-05-05T01:36:44.593Z,69.65
2023-05-05T01:36:55.593Z,69.65
2023-05-05T01:37:06.596Z,69.45
2023-05-05T01:37:18.583Z,69.35
2023-05-05T01:37:29.576Z,69.24
2023-05-05T01:37:40.593Z,69.04
2023-05-05T01:37:51.585Z,69.04
2023-05-05T01:38:03.614Z,69.24
2023-05-05T01:38:15.585Z,69.24
2023-05-05T01:38:26.581Z,69.24
2023-05-05T01:38:37.611Z,69.35
2023-05-05T01:38:49.576Z,69.45
2023-05-05T01:39:00.602Z,69.24
2023-05-05T01:39:11.582Z,69.14
2023-05-05T01:39:22.561Z,69.04
2023-05-05T01:39:33.577Z,68.93
2023-05-05T01:39:44.556Z,69.04
2023-05-05T01:39:55.549Z,69.24
2023-05-05T01:40:06.867Z,69.35
2023-05-05T01:40:17.545Z,69.45
2023-05-05T01:40:28.552Z,69.45
2023-05-05T01:40:39.560Z,69.45
2023-05-05T01:40:50.599Z,69.45
2023-05-05T01:41:01.590Z,69.45
2023-05-05T01:41:12.564Z,69.45
2023-05-05T01:41:23.563Z,69.45
2023-05-05T01:41:34.585Z,69.35
2023-05-05T01:41:45.578Z,69.35
2023-05-05T01:41:56.602Z,69.35
2023-05-05T01:42:07.596Z,69.38
2023-05-05T01:42:19.587Z,69.38
2023-05-05T01:42:30.579Z,69.38
2023-05-05T01:42:41.621Z,69.27
2023-05-05T01:42:53.619Z,69.48
2023-05-05T01:43:05.586Z,69.69
2023-05-05T01:43:16.572Z,69.79
2023-05-05T01:43:27.573Z,69.79
2023-05-05T01:43:38.577Z,69.79
2023-05-05T01:43:49.563Z,69.79
2023-05-05T01:44:00.546Z,69.69
2023-05-05T01:44:11.558Z,69.59
2023-05-05T01:44:22.543Z,69.59
2023-05-05T01:44:33.642Z,69.59
2023-05-05T01:44:45.648Z,69.59
2023-05-05T01:44:57.550Z,69.79
2023-05-05T01:45:08.578Z,70.10
2023-05-05T01:45:19.558Z,70.20
2023-05-05T01:45:30.568Z,70.00
2023-05-05T01:45:41.572Z,69.89
2023-05-05T01:45:52.634Z,69.82
2023-05-05T01:46:04.659Z,69.89
2023-05-05T01:46:15.701Z,70.23
2023-05-05T01:46:26.548Z,70.54
2023-05-05T01:46:37.552Z,70.75
2023-05-05T01:46:48.641Z,70.86
2023-05-05T01:47:00.633Z,70.96
2023-05-05T01:47:12.578Z,71.06
2023-05-05T01:47:23.584Z,70.96
2023-05-05T01:47:34.575Z,70.96
2023-05-05T01:47:45.674Z,70.96
2023-05-05T01:47:56.602Z,70.86
2023-05-05T01:48:07.611Z,70.75
2023-05-05T01:48:18.581Z,70.75
2023-05-05T01:48:29.582Z,70.65
2023-05-05T01:48:42.290Z,70.54
2023-05-05T01:48:51.554Z,70.54
2023-05-05T01:49:02.569Z,70.44
2023-05-05T01:49:13.580Z,70.65
2023-05-05T01:49:24.598Z,70.96
2023-05-05T01:49:35.611Z,71.16
2023-05-05T01:49:47.568Z,71.26
2023-05-05T01:49:58.587Z,71.16
2023-05-05T01:50:09.798Z,71.03
2023-05-05T01:50:21.601Z,71.03
2023-05-05T01:50:32.598Z,70.62
2023-05-05T01:50:43.582Z,70.41
2023-05-05T01:50:54.575Z,70.20
2023-05-05T01:51:05.570Z,70.20
2023-05-05T01:51:16.564Z,70.31
2023-05-05T01:51:27.587Z,70.31
2023-05-05T01:51:38.594Z,70.41
2023-05-05T01:51:49.568Z,70.17
2023-05-05T01:52:00.569Z,70.00
2023-05-05T01:52:11.573Z,69.76
2023-05-05T01:52:22.570Z,69.65
2023-05-05T01:52:33.565Z,69.65
2023-05-05T01:52:44.549Z,69.55
2023-05-05T01:52:56.214Z,69.45
2023-05-05T01:53:06.548Z,69.35
2023-05-05T01:53:17.620Z,69.24
2023-05-05T01:53:29.592Z,69.45
2023-05-05T01:53:40.601Z,69.65
2023-05-05T01:53:51.594Z,69.55
2023-05-05T01:54:02.576Z,69.35
2023-05-05T01:54:13.596Z,69.24
2023-05-05T01:54:24.589Z,69.14
2023-05-05T01:54:36.593Z,69.04
2023-05-05T01:54:48.602Z,68.93
2023-05-05T01:55:00.592Z,69.14
2023-05-05T01:55:11.583Z,69.27
2023-05-05T01:55:22.567Z,69.38
2023-05-05T01:55:33.581Z,69.27
2023-05-05T01:55:44.578Z,69.27
2023-05-05T01:55:55.569Z,69.17
2023-05-05T01:56:06.570Z,69.07
2023-05-05T01:56:17.583Z,69.07
2023-05-05T01:56:28.582Z,69.17
2023-05-05T01:56:40.582Z,69.27
2023-05-05T01:56:51.584Z,69.38
2023-05-05T01:57:02.617Z,69.48
2023-05-05T01:57:13.614Z,69.59
2023-05-05T01:57:25.577Z,69.79
2023-05-05T01:57:36.597Z,69.89
2023-05-05T01:57:47.593Z,70.00
2023-05-05T01:57:58.624Z,69.89
2023-05-05T01:58:10.582Z,70.10
2023-05-05T01:58:21.574Z,70.31
2023-05-05T01:58:32.619Z,70.10
2023-05-05T01:58:43.603Z,69.89
2023-05-05T01:58:54.613Z,69.69
2023-05-05T01:59:06.585Z,69.59
2023-05-05T01:59:17.612Z,69.79
2023-05-05T01:59:29.575Z,70.00
2023-05-05T01:59:40.616Z,70.10
2023-05-05T01:59:52.589Z,70.20
2023-05-05T02:00:03.624Z,70.41
2023-05-05T02:00:15.603Z,70.41
2023-05-05T02:00:27.574Z,70.51
2023-05-05T02:00:39.585Z,70.51
2023-05-05T02:00:50.571Z,70.65
2023-05-05T02:01:02.594Z,70.75
2023-05-05T02:01:14.601Z,70.86
2023-05-05T02:01:26.673Z,70.75
2023-05-05T02:01:37.707Z,70.75
2023-05-05T02:01:48.597Z,70.75
2023-05-05T02:02:00.669Z,70.75
2023-05-05T02:02:12.631Z,70.86
2023-05-05T02:02:24.677Z,70.96
2023-05-05T02:02:36.704Z,71.06
2023-05-05T02:02:48.690Z,71.06
2023-05-05T02:02:59.767Z,71.06
2023-05-05T02:03:11.708Z,71.16
2023-05-05T02:03:23.630Z,71.26
2023-05-05T02:03:35.680Z,71.26
2023-05-05T02:03:47.559Z,71.26
2023-05-05T02:03:58.559Z,71.47
2023-05-05T02:04:09.550Z,71.58
2023-05-05T02:04:20.549Z,71.58
2023-05-05T02:04:31.557Z,71.58
2023-05-05T02:04:42.626Z,71.71
2023-05-05T02:04:54.620Z,71.47
2023-05-05T02:05:06.590Z,71.51
2023-05-05T02:05:17.601Z,71.71
2023-05-05T02:05:29.574Z,71.71
2023-05-05T02:05:40.585Z,71.81
2023-05-05T02:05:51.595Z,71.92
2023-05-05T02:06:02.611Z,71.92
2023-05-05T02:06:13.615Z,71.81
2023-05-05T02:06:25.599Z,71.71
2023-05-05T02:06:36.587Z,71.71
2023-05-05T02:06:47.619Z,71.92
2023-05-05T02:06:58.610Z,72.13
2023-05-05T02:07:09.610Z,72.13
2023-05-05T02:07:20.611Z,72.23
2023-05-05T02:07:31.603Z,72.23
2023-05-05T02:07:43.590Z,72.23
2023-05-05T02:07:54.580Z,72.23
2023-05-05T02:08:05.571Z,72.23
2023-05-05T02:08:17.593Z,72.23
2023-05-05T02:08:28.577Z,72.23
2023-05-05T02:08:39.582Z,72.23
2023-05-05T02:08:51.580Z,72.02
2023-05-05T02:09:02.565Z,72.02
2023-05-05T02:09:14.575Z,71.92
2023-05-05T02:09:25.573Z,71.92
2023-05-05T02:09:37.587Z,71.92
2023-05-05T02:09:48.589Z,71.92
2023-05-05T02:10:00.615Z,71.92
2023-05-05T02:10:12.570Z,71.81
2023-05-05T02:10:23.573Z,71.71
2023-05-05T02:10:34.573Z,71.61
2023-05-05T02:10:45.573Z,71.81
2023-05-05T02:10:56.577Z,71.92
2023-05-05T02:11:07.584Z,72.02
2023-05-05T02:11:18.599Z,72.13
2023-05-05T02:11:29.604Z,72.13
2023-05-05T02:11:40.613Z,72.13
2023-05-05T02:11:52.709Z,72.23
2023-05-05T02:12:04.585Z,72.33
2023-05-05T02:12:16.601Z,72.33
2023-05-05T02:12:28.595Z,72.33
2023-05-05T02:12:39.661Z,72.23
2023-05-05T02:12:50.601Z,72.13
2023-05-05T02:13:01.624Z,72.23
2023-05-05T02:13:13.700Z,72.13
2023-05-05T02:13:25.666Z,72.02
2023-05-05T02:13:36.656Z,71.92
2023-05-05T02:13:47.636Z,71.81
2023-05-05T02:13:58.611Z,71.71
2023-05-05T02:14:10.582Z,71.51
2023-05-05T02:14:21.592Z,71.51
2023-05-05T02:14:32.577Z,71.51
2023-05-05T02:14:43.576Z,71.41
2023-05-05T02:14:54.573Z,71.41
2023-05-05T02:15:05.600Z,71.41
2023-05-05T02:15:16.619Z,71.51
2023-05-05T02:15:27.605Z,71.71
2023-05-05T02:15:39.607Z,71.92
2023-05-05T02:15:50.625Z,72.02
2023-05-05T02:16:02.679Z,72.13
2023-05-05T02:16:13.723Z,72.33
2023-05-05T02:16:25.610Z,72.44
2023-05-05T02:16:37.581Z,72.54
2023-05-05T02:16:48.577Z,72.64
2023-05-05T02:16:59.579Z,72.64
2023-05-05T02:17:10.574Z,72.64
2023-05-05T02:17:21.575Z,72.64
2023-05-05T02:17:32.577Z,72.64
2023-05-05T02:17:43.646Z,72.57
2023-05-05T02:17:54.571Z,72.57
2023-05-05T02:18:05.625Z,72.78
2023-05-05T02:18:16.560Z,73.16
2023-05-05T02:18:27.552Z,73.36
2023-05-05T02:18:38.548Z,73.26
2023-05-05T02:18:49.553Z,73.16
2023-05-05T02:19:00.550Z,73.05
2023-05-05T02:19:11.636Z,73.05
2023-05-05T02:19:23.583Z,72.85
2023-05-05T02:19:34.586Z,72.64
2023-05-05T02:19:45.584Z,72.44
2023-05-05T02:19:56.570Z,72.44
2023-05-05T02:20:07.813Z,72.44
2023-05-05T02:20:18.554Z,72.54
2023-05-05T02:20:29.647Z,72.54
2023-05-05T02:20:41.615Z,72.54
2023-05-05T02:20:53.593Z,72.33
2023-05-05T02:21:04.582Z,72.13
2023-05-05T02:21:15.607Z,72.13
2023-05-05T02:21:26.598Z,72.13
2023-05-05T02:21:37.591Z,72.23
2023-05-05T02:21:48.611Z,72.23
2023-05-05T02:22:00.581Z,72.13
2023-05-05T02:22:11.565Z,72.13
2023-05-05T02:22:22.573Z,72.23
2023-05-05T02:22:33.598Z,72.33
2023-05-05T02:22:44.602Z,72.33
2023-05-05T02:22:56.608Z,72.44
2023-05-05T02:23:07.620Z,72.64
2023-05-05T02:23:19.590Z,72.54
2023-05-05T02:23:30.581Z,72.33
2023-05-05T02:23:41.600Z,72.13
2023-05-05T02:23:52.598Z,72.13
2023-05-05T02:24:04.585Z,72.02
2023-05-05T02:24:15.580Z,71.92
2023-05-05T02:24:26.615Z,71.81
2023-05-05T02:24:37.599Z,71.71
2023-05-05T02:24:48.612Z,71.71
2023-05-05T02:24:59.614Z,71.51